createdAt,value
2017-11-07T00:00:55.648Z,18.12
2017-11-07T00:03:23.698Z,17.20
2017-11-07T00:05:51.337Z,16.70
2017-11-07T00:08:20.337Z,15.65
2017-11-07T00:10:49.045Z,14.65
2017-11-07T00:13:16.758Z,15.32
2017-11-07T00:15:44.458Z,16.42
2017-11-07T00:18:12.303Z,14.63
2017-11-07T00:20:39.956Z,14.40
2017-11-07T00:23:07.730Z,15.23
2017-11-07T00:25:35.658Z,15.18
2017-11-07T00:28:04.182Z,15.15
2017-11-07T00:30:31.727Z,16.77
2017-11-07T00:33:00.385Z,15.83
2017-11-07T00:35:28.092Z,16.27
2017-11-07T00:37:56.705Z,15.50
2017-11-07T00:40:24.417Z,16.05
2017-11-07T00:42:52.292Z,15.32
2017-11-07T00:45:20.615Z,15.55
2017-11-07T00:47:48.370Z,15.82
2017-11-07T00:50:16.831Z,15.77
2017-11-07T00:52:44.444Z,16.75
2017-11-07T00:55:12.396Z,14.57
2017-11-07T00:57:41.050Z,13.88
2017-11-07T01:00:08.846Z,15.60
2017-11-07T01:02:37.272Z,15.67
2017-11-07T01:05:04.940Z,13.75
2017-11-07T01:07:33.372Z,13.68
2017-11-07T01:10:01.154Z,12.90
2017-11-07T01:12:28.756Z,13.50
2017-11-07T01:14:56.529Z,12.82
2017-11-07T01:17:24.553Z,13.48
2017-11-07T01:19:54.325Z,12.52
2017-11-07T01:22:22.402Z,12.40
2017-11-07T01:24:50.135Z,12.50
2017-11-07T01:27:17.682Z,13.30
2017-11-07T01:29:46.292Z,12.52
2017-11-07T01:32:14.002Z,12.52
2017-11-07T01:34:42.372Z,12.63
2017-11-07T01:37:10.047Z,12.90
2017-11-07T01:39:38.962Z,11.80
2017-11-07T01:42:07.352Z,13.38
2017-11-07T01:44:34.897Z,12.27
2017-11-07T01:47:02.416Z,11.45
2017-11-07T01:49:30.107Z,12.00
2017-11-07T01:51:58.257Z,12.98
2017-11-07T01:54:25.839Z,11.40
2017-11-07T01:56:53.343Z,11.38
2017-11-07T01:59:21.665Z,11.30
2017-11-07T02:01:49.212Z,10.60
2017-11-07T02:04:16.743Z,9.77
2017-11-07T02:06:44.267Z,10.85
2017-11-07T02:09:11.825Z,10.40
2017-11-07T02:11:40.132Z,11.07
2017-11-07T02:14:07.641Z,9.93
2017-11-07T02:16:35.201Z,11.25
2017-11-07T02:19:02.744Z,11.40
2017-11-07T02:21:30.264Z,11.70
2017-11-07T02:23:57.802Z,11.02
2017-11-07T02:26:26.109Z,11.25
2017-11-07T02:28:53.709Z,12.10
2017-11-07T02:31:21.234Z,12.05
2017-11-07T02:33:48.802Z,15.95
2017-11-07T02:36:16.412Z,17.50
2017-11-07T02:38:43.916Z,18.95
2017-11-07T02:41:11.433Z,20.17
2017-11-07T02:43:38.982Z,20.97
2017-11-07T02:46:06.580Z,19.10
2017-11-07T02:48:34.179Z,17.95
2017-11-07T02:51:01.703Z,15.43
2017-11-07T02:53:30.037Z,13.57
2017-11-07T02:55:57.556Z,12.98
2017-11-07T02:58:25.114Z,12.52
2017-11-07T03:00:52.662Z,11.30
2017-11-07T03:03:20.213Z,10.13
2017-11-07T03:05:48.483Z,9.43
2017-11-07T03:08:16.766Z,9.50
2017-11-07T03:10:45.071Z,9.07
2017-11-07T03:13:12.671Z,9.95
2017-11-07T03:15:40.225Z,10.20
2017-11-07T03:18:07.821Z,8.75
2017-11-07T03:20:36.100Z,8.90
2017-11-07T03:23:04.379Z,9.65
2017-11-07T03:25:32.714Z,8.70
2017-11-07T03:28:00.241Z,8.93
2017-11-07T03:30:27.769Z,8.38
2017-11-07T03:32:56.105Z,8.88
2017-11-07T03:35:23.699Z,9.43
2017-11-07T03:37:51.234Z,9.20
2017-11-07T03:40:18.734Z,8.65
2017-11-07T03:42:46.248Z,8.60
2017-11-07T03:45:13.775Z,8.52
2017-11-07T03:47:41.340Z,8.68
2017-11-07T03:50:08.868Z,8.40
2017-11-07T03:52:37.199Z,8.40
2017-11-07T03:55:04.737Z,8.50
2017-11-07T03:57:32.296Z,9.03
2017-11-07T03:59:59.839Z,8.00
2017-11-07T04:02:27.345Z,8.23
2017-11-07T04:04:54.877Z,8.77
2017-11-07T04:07:22.395Z,8.15
2017-11-07T04:09:49.912Z,8.65
2017-11-07T04:12:17.433Z,8.77
2017-11-07T04:14:44.954Z,7.50
2017-11-07T04:17:12.467Z,7.93
2017-11-07T04:19:40.014Z,8.43
2017-11-07T04:22:08.306Z,8.73
2017-11-07T04:24:35.854Z,8.55
2017-11-07T04:27:03.405Z,8.80
2017-11-07T04:29:31.689Z,8.50
2017-11-07T04:32:00.001Z,9.57
2017-11-07T04:34:27.519Z,9.68
2017-11-07T04:36:55.040Z,8.90
2017-11-07T04:39:22.635Z,9.40
2017-11-07T04:41:50.203Z,8.43
2017-11-07T04:44:18.480Z,8.32
2017-11-07T04:46:46.750Z,8.10
2017-11-07T04:49:15.033Z,8.55
2017-11-07T04:51:43.297Z,8.57
2017-11-07T04:54:11.576Z,8.45
2017-11-07T04:56:39.956Z,8.88
2017-11-07T04:59:07.474Z,7.82
2017-11-07T05:01:35.035Z,7.75
2017-11-07T05:04:02.566Z,7.68
2017-11-07T05:23:47.425Z,9.05
2017-11-07T05:26:15.723Z,8.43
2017-11-07T05:28:43.328Z,8.63
2017-11-07T05:31:10.846Z,8.70
2017-11-07T05:33:38.378Z,9.13
2017-11-07T05:36:05.909Z,8.88
2017-11-07T05:38:34.226Z,8.20
2017-11-07T05:41:02.560Z,8.80
2017-11-07T05:43:30.078Z,8.15
2017-11-07T05:45:57.600Z,8.00
2017-11-07T05:48:25.137Z,8.00
2017-11-07T05:50:52.736Z,8.97
2017-11-07T05:53:21.034Z,7.40
2017-11-07T05:55:48.544Z,7.20
2017-11-07T05:58:16.119Z,15.20
2017-11-07T06:00:44.455Z,9.85
2017-11-07T06:03:11.975Z,7.95
2017-11-07T06:05:39.532Z,7.60
2017-11-07T06:08:07.830Z,7.22
2017-11-07T06:10:35.380Z,7.20
2017-11-07T06:13:03.379Z,8.02
2017-11-07T06:15:30.995Z,7.30
2017-11-07T06:17:59.421Z,7.45
2017-11-07T06:20:26.951Z,7.97
2017-11-07T06:22:55.272Z,7.90
2017-11-07T06:25:22.770Z,7.55
2017-11-07T06:27:50.273Z,7.53
2017-11-07T06:30:17.807Z,7.97
2017-11-07T06:32:46.095Z,7.22
2017-11-07T06:35:13.661Z,7.87
2017-11-07T06:37:41.183Z,7.18
2017-11-07T06:40:09.479Z,7.10
2017-11-07T06:42:37.129Z,7.80
2017-11-07T06:45:05.417Z,7.78
2017-11-07T06:47:33.696Z,7.37
2017-11-07T06:50:01.958Z,8.30
2017-11-07T06:52:30.264Z,7.28
2017-11-07T06:54:57.796Z,8.48
2017-11-07T06:57:25.397Z,7.20
2017-11-07T06:59:53.442Z,9.20
2017-11-07T07:02:20.983Z,7.20
2017-11-07T07:04:48.520Z,7.80
2017-11-07T07:07:16.044Z,7.63
2017-11-07T07:09:43.563Z,9.10
2017-11-07T07:12:11.159Z,8.07
2017-11-07T07:14:38.690Z,7.45
2017-11-07T07:17:06.200Z,6.72
2017-11-07T07:19:33.709Z,8.32
2017-11-07T07:22:02.034Z,7.62
2017-11-07T07:24:29.544Z,10.07
2017-11-07T07:26:57.215Z,8.10
2017-11-07T07:29:24.776Z,8.00
2017-11-07T07:31:53.135Z,9.20
2017-11-07T07:34:20.695Z,8.00
2017-11-07T07:36:48.985Z,7.70
2017-11-07T07:39:17.292Z,8.18
2017-11-07T07:41:44.848Z,8.27
2017-11-07T07:44:12.411Z,7.97
2017-11-07T07:46:39.937Z,9.95
2017-11-07T07:49:08.256Z,10.27
2017-11-07T07:51:35.791Z,11.40
2017-11-07T07:54:04.096Z,9.20
2017-11-07T07:56:31.644Z,8.77
2017-11-07T07:58:59.900Z,8.95
2017-11-07T08:01:27.413Z,8.90
2017-11-07T08:03:54.973Z,8.20
2017-11-07T08:06:22.508Z,8.55
2017-11-07T08:08:50.166Z,31.50
2017-11-07T08:11:17.753Z,13.00
2017-11-07T08:13:45.280Z,10.43
2017-11-07T08:16:12.847Z,8.20
2017-11-07T08:18:40.363Z,8.00
2017-11-07T08:21:08.720Z,9.30
2017-11-07T08:23:36.251Z,9.40
2017-11-07T08:26:04.084Z,8.15
2017-11-07T08:28:32.431Z,8.50
2017-11-07T08:30:59.949Z,8.90
2017-11-07T08:33:27.471Z,9.43
2017-11-07T08:35:55.210Z,9.20
2017-11-07T08:38:22.770Z,8.80
2017-11-07T08:40:50.288Z,8.88
2017-11-07T08:43:17.811Z,8.38
2017-11-07T08:45:45.344Z,9.45
2017-11-07T08:48:12.851Z,19.08
2017-11-07T08:50:40.393Z,13.40
2017-11-07T08:53:07.909Z,8.30
2017-11-07T08:55:35.513Z,6.47
2017-11-07T08:58:03.036Z,7.30
2017-11-07T09:00:31.355Z,7.53
2017-11-07T09:02:59.660Z,7.20
2017-11-07T09:05:27.211Z,6.40
2017-11-07T09:07:54.748Z,6.60
2017-11-07T09:10:23.134Z,6.50
2017-11-07T09:12:50.671Z,6.72
2017-11-07T09:15:18.229Z,7.57
2017-11-07T09:17:45.751Z,7.87
2017-11-07T09:20:13.402Z,7.00
2017-11-07T09:22:40.923Z,5.68
2017-11-07T09:25:08.760Z,6.10
2017-11-07T09:27:36.335Z,6.80
2017-11-07T09:30:03.871Z,5.82
2017-11-07T09:32:31.393Z,7.80
2017-11-07T09:34:58.910Z,6.68
2017-11-07T09:37:26.429Z,21.23
2017-11-07T09:39:54.009Z,5.53
2017-11-07T09:42:21.546Z,5.70
2017-11-07T09:44:49.109Z,15.95
2017-11-07T09:47:16.625Z,6.00
2017-11-07T09:49:44.958Z,9.47
2017-11-07T09:52:12.480Z,9.38
2017-11-07T09:54:40.782Z,6.60
2017-11-07T09:57:08.297Z,6.60
2017-11-07T09:59:35.827Z,7.40
2017-11-07T10:02:03.354Z,6.43
2017-11-07T10:04:30.884Z,4.87
2017-11-07T10:06:58.448Z,4.72
2017-11-07T10:09:26.738Z,4.80
2017-11-07T10:11:54.264Z,4.28
2017-11-07T10:14:21.790Z,4.50
2017-11-07T10:16:49.352Z,4.37
2017-11-07T10:19:17.109Z,4.10
2017-11-07T10:21:44.629Z,4.97
2017-11-07T10:24:12.967Z,12.30
2017-11-07T10:26:40.477Z,4.87
2017-11-07T10:29:07.995Z,4.55
2017-11-07T10:31:35.495Z,4.12
2017-11-07T10:34:03.771Z,6.43
2017-11-07T10:36:32.064Z,7.37
2017-11-07T10:38:59.593Z,4.35
2017-11-07T10:41:27.128Z,3.67
2017-11-07T10:43:54.665Z,4.60
2017-11-07T10:46:22.241Z,4.12
2017-11-07T10:48:49.777Z,4.97
2017-11-07T10:51:17.328Z,3.40
2017-11-07T10:53:44.859Z,3.95
2017-11-07T10:56:13.119Z,3.42
2017-11-07T10:58:40.631Z,3.35
2017-11-07T11:01:08.141Z,5.15
2017-11-07T11:03:35.684Z,3.35
2017-11-07T11:06:03.247Z,3.72
2017-11-07T11:08:30.793Z,3.85
2017-11-07T11:10:58.334Z,3.83
2017-11-07T11:13:25.936Z,4.30
2017-11-07T11:15:54.272Z,4.20
2017-11-07T11:18:21.789Z,4.75
2017-11-07T11:20:49.308Z,4.57
2017-11-07T11:23:16.800Z,3.95
2017-11-07T11:25:45.110Z,3.85
2017-11-07T11:28:12.864Z,11.45
2017-11-07T11:30:40.393Z,6.20
2017-11-07T11:33:08.068Z,5.45
2017-11-07T11:35:36.364Z,4.25
2017-11-07T11:38:03.937Z,3.87
2017-11-07T11:40:31.471Z,4.50
2017-11-07T11:42:59.786Z,2.92
2017-11-07T11:45:27.321Z,5.25
2017-11-07T11:47:54.893Z,4.90
2017-11-07T11:50:25.802Z,3.10
2017-11-07T11:52:54.083Z,5.95
2017-11-07T11:55:22.693Z,4.20
2017-11-07T11:57:50.218Z,4.33
2017-11-07T12:00:18.520Z,3.80
2017-11-07T12:02:46.048Z,6.53
2017-11-07T12:05:13.615Z,4.75
2017-11-07T12:07:41.120Z,4.20
2017-11-07T12:10:08.757Z,6.50
2017-11-07T12:12:36.303Z,4.60
2017-11-07T12:15:04.619Z,4.80
2017-11-07T12:17:32.157Z,5.75
2017-11-07T12:20:00.448Z,3.97
2017-11-07T12:22:27.972Z,5.28
2017-11-07T12:24:55.516Z,3.80
2017-11-07T12:27:23.035Z,3.83
2017-11-07T12:29:50.584Z,4.65
2017-11-07T12:32:18.105Z,5.05
2017-11-07T12:34:45.621Z,5.97
2017-11-07T12:37:13.180Z,5.05
2017-11-07T12:39:40.765Z,5.62
2017-11-07T12:42:08.298Z,4.70
2017-11-07T12:44:35.834Z,8.27
2017-11-07T12:47:03.383Z,6.37
2017-11-07T12:49:30.976Z,7.18
2017-11-07T12:52:00.296Z,4.43
2017-11-07T12:54:27.828Z,4.20
2017-11-07T12:56:55.332Z,4.20
2017-11-07T12:59:22.856Z,4.43
2017-11-07T13:01:50.407Z,5.78
2017-11-07T13:04:17.945Z,4.90
2017-11-07T13:06:46.213Z,5.28
2017-11-07T13:09:13.719Z,5.47
2017-11-07T13:11:41.541Z,4.62
2017-11-07T13:14:09.865Z,4.60
2017-11-07T13:16:37.403Z,4.10
2017-11-07T13:19:04.934Z,5.87
2017-11-07T13:21:33.280Z,6.50
2017-11-07T13:24:00.831Z,4.80
2017-11-07T13:26:28.448Z,5.22
2017-11-07T13:28:56.127Z,5.35
2017-11-07T13:31:23.645Z,5.20
2017-11-07T13:33:51.925Z,5.28
2017-11-07T13:36:20.229Z,5.82
2017-11-07T13:38:48.573Z,5.68
2017-11-07T13:41:16.132Z,4.37
2017-11-07T13:43:43.640Z,5.45
2017-11-07T13:46:11.164Z,5.28
2017-11-07T13:48:38.671Z,7.95
2017-11-07T13:51:06.212Z,8.10
2017-11-07T13:53:33.757Z,9.13
2017-11-07T13:56:01.287Z,5.37
2017-11-07T13:58:29.584Z,4.70
2017-11-07T14:00:57.868Z,5.55
2017-11-07T14:03:26.147Z,7.60
2017-11-07T14:05:54.452Z,4.60
2017-11-07T14:08:21.966Z,6.70
2017-11-07T14:10:49.511Z,5.93
2017-11-07T14:13:17.171Z,6.37
2017-11-07T14:15:44.718Z,5.43
2017-11-07T14:18:12.262Z,18.02
2017-11-07T14:20:39.764Z,8.27
2017-11-07T14:23:08.964Z,5.37
2017-11-07T14:25:37.265Z,5.80
2017-11-07T14:28:04.809Z,7.80
2017-11-07T14:30:33.167Z,8.35
2017-11-07T14:33:00.719Z,7.85
2017-11-07T14:35:28.490Z,8.68
2017-11-07T14:37:56.025Z,5.60
2017-11-07T14:40:23.674Z,8.68
2017-11-07T14:42:51.189Z,9.63
2017-11-07T14:45:18.949Z,22.83
2017-11-07T14:47:46.674Z,5.37
2017-11-07T14:50:14.215Z,6.45
2017-11-07T14:52:41.753Z,7.25
2017-11-07T14:55:09.607Z,4.25
2017-11-07T14:57:37.135Z,4.55
2017-11-07T15:00:04.854Z,7.93
2017-11-07T15:02:32.708Z,4.90
2017-11-07T15:05:01.094Z,5.65
2017-11-07T15:07:28.608Z,6.40
2017-11-07T15:09:56.176Z,5.05
2017-11-07T15:12:23.719Z,5.15
2017-11-07T15:14:51.248Z,4.82
2017-11-07T15:17:18.783Z,6.03
2017-11-07T15:19:47.051Z,6.15
2017-11-07T15:22:14.568Z,7.37
2017-11-07T15:24:42.174Z,4.65
2017-11-07T15:27:10.470Z,5.85
2017-11-07T15:29:38.029Z,4.50
2017-11-07T15:32:05.548Z,4.28
2017-11-07T15:34:33.152Z,5.53
2017-11-07T15:37:00.687Z,5.82
2017-11-07T15:39:28.304Z,5.80
2017-11-07T15:41:55.824Z,14.65
2017-11-07T15:44:23.364Z,5.50
2017-11-07T15:46:51.681Z,6.87
2017-11-07T15:49:19.282Z,5.85
2017-11-07T15:51:47.606Z,6.07
2017-11-07T15:54:15.119Z,6.20
2017-11-07T15:56:42.634Z,5.90
2017-11-07T15:59:10.173Z,4.87
2017-11-07T16:01:38.665Z,5.15
2017-11-07T16:04:06.260Z,5.22
2017-11-07T16:06:33.903Z,5.10
2017-11-07T16:09:02.209Z,5.45
2017-11-07T16:11:29.715Z,4.80
2017-11-07T16:13:59.176Z,7.03
2017-11-07T16:16:26.855Z,6.80
2017-11-07T16:18:55.574Z,6.82
2017-11-07T16:21:23.883Z,5.45
2017-11-07T16:23:52.014Z,4.80
2017-11-07T16:26:19.722Z,5.53
2017-11-07T16:28:47.362Z,5.40
2017-11-07T16:31:14.897Z,4.57
2017-11-07T16:33:42.469Z,5.00
2017-11-07T16:36:10.267Z,5.28
2017-11-07T16:38:37.804Z,5.28
2017-11-07T16:41:05.361Z,8.38
2017-11-07T16:43:34.348Z,5.60
2017-11-07T16:46:01.872Z,6.20
2017-11-07T16:48:29.506Z,4.65
2017-11-07T16:50:57.079Z,6.80
2017-11-07T16:53:25.314Z,9.00
2017-11-07T16:55:52.872Z,9.02
2017-11-07T16:58:20.422Z,8.55
2017-11-07T17:00:48.967Z,7.60
2017-11-07T17:03:16.967Z,6.85
2017-11-07T17:05:47.206Z,5.47
2017-11-07T17:08:15.851Z,7.82
2017-11-07T17:10:43.381Z,6.40
2017-11-07T17:13:11.864Z,7.97
2017-11-07T17:15:39.686Z,7.20
2017-11-07T17:18:07.834Z,6.50
2017-11-07T17:20:35.359Z,6.55
2017-11-07T17:23:02.949Z,8.75
2017-11-07T17:25:30.604Z,7.18
2017-11-07T17:27:58.551Z,7.72
2017-11-07T17:30:26.168Z,7.75
2017-11-07T17:32:55.453Z,8.75
2017-11-07T17:35:23.078Z,8.60
2017-11-07T17:37:52.069Z,9.77
2017-11-07T17:40:19.637Z,8.65
2017-11-07T17:42:47.442Z,6.68
2017-11-07T17:45:15.604Z,8.88
2017-11-07T17:47:43.234Z,8.90
2017-11-07T17:50:12.542Z,9.52
2017-11-07T17:52:41.748Z,11.90
2017-11-07T17:55:10.756Z,10.65
2017-11-07T17:57:39.029Z,9.68
2017-11-07T18:00:13.162Z,9.40
2017-11-07T18:02:41.095Z,9.10
2017-11-07T18:05:08.812Z,10.15
2017-11-07T18:07:37.347Z,11.65
2017-11-07T18:10:05.008Z,13.77
2017-11-07T18:12:32.723Z,11.57
2017-11-07T18:15:00.544Z,12.00
2017-11-07T18:17:28.191Z,10.40
2017-11-07T18:19:56.094Z,12.43
2017-11-07T18:22:24.009Z,11.05
2017-11-07T18:24:51.552Z,11.75
2017-11-07T18:27:19.894Z,12.50
2017-11-07T18:29:49.445Z,14.85
2017-11-07T18:32:18.096Z,14.52
2017-11-07T18:34:45.942Z,13.52
2017-11-07T18:37:13.685Z,14.87
2017-11-07T18:39:41.311Z,15.00
2017-11-07T18:42:09.059Z,15.80
2017-11-07T18:44:36.650Z,14.20
2017-11-07T18:47:07.285Z,16.42
2017-11-07T18:49:35.973Z,18.05
2017-11-07T18:52:04.595Z,20.65
2017-11-07T18:54:32.477Z,16.15
2017-11-07T18:57:00.528Z,16.30
2017-11-07T18:59:28.177Z,23.30
2017-11-07T19:01:55.879Z,18.70
2017-11-07T19:04:23.565Z,19.65
2017-11-07T19:06:51.533Z,17.42
2017-11-07T19:09:20.892Z,18.60
2017-11-07T19:11:48.671Z,19.87
2017-11-07T19:14:16.497Z,18.70
2017-11-07T19:16:44.171Z,22.55
2017-11-07T19:19:12.649Z,19.62
2017-11-07T19:21:40.199Z,19.37
2017-11-07T19:24:07.773Z,20.90
2017-11-07T19:26:35.397Z,21.02
2017-11-07T19:29:03.734Z,23.60
2017-11-07T19:31:32.397Z,21.12
2017-11-07T19:33:59.972Z,21.00
2017-11-07T19:36:27.566Z,24.58
2017-11-07T19:38:56.362Z,22.90
2017-11-07T19:41:24.587Z,22.62
2017-11-07T19:43:52.298Z,24.75
2017-11-07T19:46:20.113Z,24.50
2017-11-07T19:48:47.649Z,25.85
2017-11-07T19:51:16.049Z,23.48
2017-11-07T19:53:44.712Z,25.05
2017-11-07T19:56:13.196Z,26.30
2017-11-07T19:58:40.830Z,25.55
2017-11-07T20:01:09.149Z,24.50
2017-11-07T20:03:38.287Z,24.85
2017-11-07T20:23:32.381Z,25.52
2017-11-07T20:26:00.428Z,28.92
2017-11-07T20:28:27.974Z,29.33
2017-11-07T20:30:55.573Z,27.83
2017-11-07T20:33:23.215Z,28.87
2017-11-07T20:35:50.832Z,30.65
2017-11-07T20:38:19.185Z,28.55
2017-11-07T20:40:46.743Z,30.62
2017-11-07T20:43:14.440Z,28.17
2017-11-07T20:45:42.787Z,29.70
2017-11-07T20:48:10.317Z,28.38
2017-11-07T20:50:37.923Z,31.62
2017-11-07T20:53:05.507Z,31.73
2017-11-07T20:55:33.866Z,30.30
2017-11-07T20:58:02.020Z,31.67
2017-11-07T21:00:29.662Z,32.28
2017-11-07T21:02:57.996Z,32.50
2017-11-07T21:05:26.216Z,36.95
2017-11-07T21:07:55.394Z,35.05
2017-11-07T21:10:22.924Z,37.30
2017-11-07T21:12:50.551Z,33.28
2017-11-07T21:15:18.131Z,33.22
2017-11-07T21:17:45.787Z,33.22
2017-11-07T21:20:13.340Z,32.10
2017-11-07T21:22:41.687Z,30.83
2017-11-07T21:25:09.509Z,33.70
2017-11-07T21:27:37.067Z,31.50
2017-11-07T21:30:05.367Z,32.30
2017-11-07T21:32:33.720Z,31.12
2017-11-07T21:35:01.343Z,31.75
2017-11-07T21:37:28.972Z,35.78
2017-11-07T21:39:56.518Z,33.65
2017-11-07T21:42:24.082Z,33.80
2017-11-07T21:44:52.465Z,33.33
2017-11-07T21:47:20.776Z,35.53
2017-11-07T21:49:49.844Z,33.45
2017-11-07T21:52:17.409Z,32.60
2017-11-07T21:54:45.016Z,35.97
2017-11-07T21:57:13.961Z,34.63
2017-11-07T21:59:41.494Z,32.97
2017-11-07T22:02:09.377Z,34.00
2017-11-07T22:04:37.136Z,36.08
2017-11-07T22:07:05.457Z,35.45
2017-11-07T22:09:34.039Z,32.88
2017-11-07T22:12:02.849Z,36.58
2017-11-07T22:14:30.434Z,34.13
2017-11-07T22:16:59.948Z,32.83
2017-11-07T22:19:28.583Z,33.40
2017-11-07T22:21:56.157Z,37.85
2017-11-07T22:24:23.710Z,39.90
2017-11-07T22:26:51.270Z,47.67
2017-11-07T22:29:18.833Z,36.67
2017-11-07T22:31:46.336Z,32.28
2017-11-07T22:34:14.640Z,37.38
2017-11-07T22:36:42.263Z,37.20
2017-11-07T22:39:09.865Z,37.70
2017-11-07T22:41:37.419Z,38.95
2017-11-07T22:44:04.970Z,37.22
2017-11-07T22:46:32.521Z,36.78
2017-11-07T22:49:00.904Z,38.25
2017-11-07T22:51:28.449Z,39.88
2017-11-07T22:53:56.782Z,35.50
2017-11-07T22:56:24.441Z,35.63
2017-11-07T22:58:51.984Z,42.15
2017-11-07T23:01:19.852Z,39.30
2017-11-07T23:03:47.608Z,41.40
2017-11-07T23:06:17.972Z,37.88
2017-11-07T23:08:46.660Z,35.28
2017-11-07T23:11:14.273Z,39.33
2017-11-07T23:13:42.650Z,42.05
2017-11-07T23:16:10.249Z,39.33
2017-11-07T23:18:37.807Z,38.30
2017-11-07T23:21:05.390Z,38.20
2017-11-07T23:23:32.924Z,40.45
2017-11-07T23:26:00.634Z,39.30
2017-11-07T23:28:28.146Z,43.22
2017-11-07T23:30:55.667Z,45.08
2017-11-07T23:33:23.247Z,40.70
2017-11-07T23:35:50.794Z,38.25
2017-11-07T23:38:18.370Z,41.13
2017-11-07T23:40:45.987Z,38.10
2017-11-07T23:43:13.518Z,45.25
2017-11-07T23:45:41.071Z,43.05
2017-11-07T23:48:08.715Z,42.45
2017-11-07T23:50:36.292Z,45.33
2017-11-07T23:53:03.858Z,40.90
2017-11-07T23:55:31.453Z,42.53
2017-11-07T23:57:59.010Z,41.63
